Time;durP1;ratioP1;P1;durP2;ratioP2;P2;SDS_P1;SDS_P2;PMS_P1;PMS_P2;Temp;Humidity;BMP_temperature;BMP_pressure;BME280_temperature;BME280_humidity;BME280_pressure;Samples;Min_cycle;Max_cycle;Signal;HPM_P1;HPM_P2
2023/06/13 00:00:47;;;;;;;12.57;4.57;;;11.60;99.90;;;10.41;89.46;101462.47;4985068;28;20414;-71
2023/06/13 00:03:13;;;;;;;14.60;4.75;;;11.60;99.90;;;10.37;88.90;101463.50;4949070;28;20075;-71
2023/06/13 00:05:45;;;;;;;17.17;4.57;;;11.50;99.90;;;10.32;89.56;101454.88;4983727;28;20090;-72
2023/06/13 00:08:17;;;;;;;11.93;4.80;;;11.40;99.90;;;10.23;90.73;101457.78;4950955;28;20541;-71
2023/06/13 00:10:48;;;;;;;14.73;4.57;;;11.30;99.90;;;10.21;93.52;101449.94;4954817;28;20046;-71
2023/06/13 00:13:18;;;;;;;13.40;4.95;;;11.40;99.90;;;10.19;93.89;101446.50;4973893;28;20173;-71
2023/06/13 00:15:56;;;;;;;9.43;4.63;;;11.30;99.90;;;10.18;94.05;101449.22;4974661;28;20038;-71
2023/06/13 00:18:23;;;;;;;8.95;4.07;;;11.30;99.90;;;10.15;93.73;101439.66;4950359;28;20084;-70
2023/06/13 00:20:54;;;;;;;15.30;4.50;;;11.30;99.90;;;10.14;94.38;101447.59;4978183;28;20028;-71
2023/06/13 00:23:21;;;;;;;9.63;4.30;;;11.30;99.90;;;10.13;94.98;101446.72;4981913;28;20670;-70
2023/06/13 00:25:47;;;;;;;16.75;4.88;;;11.30;99.90;;;10.10;95.37;101444.19;4982360;28;20062;-71
2023/06/13 00:28:13;;;;;;;12.70;4.60;;;11.20;99.90;;;10.11;95.98;101442.41;4982736;28;24947;-71
2023/06/13 00:30:39;;;;;;;12.30;4.45;;;11.30;99.90;;;10.13;95.33;101440.59;4930374;28;20034;-70
2023/06/13 00:33:05;;;;;;;13.35;4.28;;;11.30;99.90;;;10.14;94.79;101442.31;4984454;28;20133;-71
2023/06/13 00:35:32;;;;;;;9.63;4.05;;;11.30;99.90;;;10.11;95.16;101439.78;4984336;28;20027;-71
2023/06/13 00:37:58;;;;;;;13.30;4.68;;;11.20;99.90;;;10.10;95.46;101440.69;4952547;28;20089;-71
2023/06/13 00:40:25;;;;;;;15.10;4.45;;;11.20;99.90;;;10.05;95.74;101439.06;4953719;28;20042;-71
2023/06/13 00:42:52;;;;;;;10.90;4.20;;;11.20;99.90;;;10.02;94.84;101431.28;4969923;28;20038;-70
2023/06/13 00:45:29;;;;;;;16.10;4.55;;;11.20;99.90;;;9.97;94.96;101425.31;4978294;28;20714;-71
2023/06/13 00:48:04;;;;;;;12.77;3.97;;;11.10;99.90;;;9.96;94.55;101430.63;4951467;28;20583;-70
2023/06/13 00:50:40;;;;;;;10.80;4.80;;;11.10;99.90;;;9.90;94.88;101434.31;4982135;28;20595;-71
2023/06/13 00:53:16;;;;;;;8.53;4.37;;;11.00;99.90;;;9.86;95.43;101432.69;4981028;28;20049;-70
2023/06/13 00:55:44;;;;;;;18.33;5.35;;;11.00;99.90;;;9.83;95.75;101431.03;4967395;28;20377;-70
2023/06/13 00:58:12;;;;;;;10.93;4.60;;;11.00;99.90;;;9.81;95.84;101434.63;4981567;28;20822;-71
2023/06/13 01:00:40;;;;;;;13.30;4.47;;;10.90;99.90;;;9.77;96.32;101433.00;4983706;28;20063;-70
2023/06/13 01:03:07;;;;;;;9.88;4.75;;;10.90;99.90;;;9.75;96.36;101432.19;4972631;28;20037;-71
2023/06/13 01:05:34;;;;;;;11.80;4.63;;;10.70;99.90;;;9.69;96.33;101429.75;4955398;28;20046;-71
2023/06/13 01:08:06;;;;;;;10.88;4.63;;;10.90;99.90;;;9.68;96.32;101425.41;4960114;28;20098;-70
2023/06/13 01:10:33;;;;;;;9.13;4.50;;;10.80;99.90;;;9.66;96.32;101430.72;4956742;28;20502;-70
2023/06/13 01:13:16;;;;;;;14.45;4.72;;;10.80;99.90;;;9.59;97.01;101426.53;4983749;28;20031;-71
2023/06/13 01:16:25;;;;;;;9.63;4.30;;;10.80;99.90;;;9.54;96.53;101426.69;4956048;28;20109;-70
2023/06/13 01:18:54;;;;;;;14.25;4.30;;;10.70;99.90;;;9.49;95.59;101422.50;4958509;28;20097;-70
2023/06/13 01:21:24;;;;;;;10.45;4.40;;;10.70;99.90;;;9.45;95.03;101427.81;4977276;28;20069;-71
2023/06/13 01:24:07;;;;;;;13.82;4.78;;;10.70;99.90;;;9.43;94.13;101424.38;4971202;28;20111;-70
2023/06/13 01:26:59;;;;;;;11.15;4.45;;;10.60;99.90;;;9.43;94.13;101423.53;4970007;28;20030;-70
2023/06/13 01:29:27;;;;;;;11.57;4.20;;;10.60;99.90;;;9.40;94.29;101418.38;4981615;28;20031;-70
2023/06/13 01:31:56;;;;;;;10.82;4.47;;;10.60;99.90;;;9.41;94.07;101428.81;4987476;28;20043;-71
2023/06/13 01:34:24;;;;;;;13.23;4.25;;;10.60;99.90;;;9.41;94.54;101426.19;4956736;28;20058;-70
2023/06/13 01:36:50;;;;;;;17.10;4.63;;;10.60;99.90;;;9.45;95.18;101422.56;4983862;28;20046;-70
2023/06/13 01:39:16;;;;;;;13.05;4.45;;;10.60;99.90;;;9.49;96.31;101425.97;4987513;28;20035;-70
2023/06/13 01:41:42;;;;;;;10.95;4.30;;;10.60;99.90;;;9.51;96.61;101429.41;4970791;28;20049;-70
2023/06/13 01:44:15;;;;;;;13.98;4.70;;;10.70;99.90;;;9.51;96.58;101424.16;4958013;28;20031;-70
2023/06/13 01:47:16;;;;;;;11.95;4.70;;;10.70;99.90;;;9.52;96.69;101423.22;4986938;28;20579;-70
2023/06/13 01:50:06;;;;;;;14.63;4.43;;;10.70;99.90;;;9.49;96.63;101425.97;4954454;28;20043;-70
2023/06/13 01:52:50;;;;;;;12.82;4.00;;;10.60;99.90;;;9.47;96.44;101424.31;4956438;28;20034;-71
2023/06/13 01:55:37;;;;;;;10.30;4.32;;;10.60;99.90;;;9.43;96.81;101428.78;4981707;28;20081;-70
2023/06/13 01:58:12;;;;;;;13.05;4.05;;;10.60;99.90;;;9.41;96.51;101420.94;4985651;28;20039;-70
2023/06/13 02:00:41;;;;;;;11.45;4.20;;;10.60;99.90;;;9.40;96.93;101421.00;4953765;28;20109;-70
2023/06/13 02:03:07;;;;;;;12.60;4.00;;;10.60;99.90;;;9.38;97.46;101425.44;4953950;28;20126;-70
2023/06/13 02:05:34;;;;;;;15.98;4.60;;;10.60;99.90;;;9.38;97.48;101420.19;4972469;28;20023;-70
2023/06/13 02:08:02;;;;;;;17.77;4.57;;;10.60;99.90;;;9.42;97.73;101427.09;4985234;28;20554;-70
2023/06/13 02:10:27;;;;;;;13.13;4.63;;;10.60;99.90;;;9.41;97.47;101430.59;4956860;28;20043;-70
2023/06/13 02:12:53;;;;;;;8.60;4.50;;;10.60;99.90;;;9.39;97.80;101425.38;4951408;28;20034;-70
2023/06/13 02:15:19;;;;;;;13.65;4.45;;;10.60;99.90;;;9.43;97.73;101423.53;4986843;28;20106;-70
2023/06/13 02:17:45;;;;;;;13.30;4.30;;;10.60;99.90;;;9.45;98.22;101421.72;4987856;28;20043;-70
2023/06/13 02:20:12;;;;;;;10.02;4.25;;;10.60;99.90;;;9.49;98.94;101419.84;4954339;28;20094;-70
2023/06/13 02:22:38;;;;;;;16.70;4.90;;;10.70;99.90;;;9.52;99.54;101417.97;4951634;28;20122;-69
2023/06/13 02:25:04;;;;;;;7.70;3.60;;;10.70;99.90;;;9.55;99.57;101427.56;4987202;28;20471;-70
2023/06/13 02:27:32;;;;;;;10.27;4.47;;;10.70;99.90;;;9.60;99.70;101429.13;4992029;28;20034;-69
2023/06/13 02:29:58;;;;;;;12.50;4.00;;;10.70;99.90;;;9.62;99.85;101419.41;4986978;28;20508;-70
2023/06/13 02:32:24;;;;;;;12.25;4.93;;;10.80;99.90;;;9.65;99.23;101418.44;4954388;28;20053;-70
2023/06/13 02:34:51;;;;;;;;;;;10.70;99.90;;;9.62;99.10;101426.44;4985089;28;20034;-70
2023/06/13 02:37:18;;;;;;;;;;;10.80;99.90;;;9.55;99.42;101427.56;4985751;28;19918;-70
2023/06/13 02:39:44;;;;;;;7.35;3.90;;;10.70;99.90;;;9.53;98.69;101422.34;4985715;28;20012;-70
2023/06/13 02:42:10;;;;;;;12.93;4.68;;;10.70;99.90;;;9.57;99.01;101431.00;4972463;28;20582;-70
2023/06/13 02:44:36;;;;;;;12.30;4.30;;;10.70;99.90;;;9.58;99.75;101423.06;4955476;28;20165;-70
2023/06/13 02:47:02;;;;;;;11.18;4.30;;;10.70;99.90;;;9.68;99.28;101425.41;4974933;28;20034;-69
2023/06/13 02:49:28;;;;;;;10.90;4.30;;;10.80;99.90;;;9.71;99.16;101430.56;4953591;28;20118;-70
2023/06/13 02:51:54;;;;;;;8.90;4.63;;;10.80;99.90;;;9.75;99.87;101434.81;4954271;28;20050;-69
2023/06/13 02:54:20;;;;;;;9.43;4.28;;;10.90;99.90;;;9.81;99.42;101429.38;4987464;28;20385;-70
2023/06/13 02:56:46;;;;;;;11.98;4.95;;;10.90;99.90;;;9.87;99.43;101434.44;4954377;28;20042;-70
2023/06/13 02:59:11;;;;;;;13.05;4.50;;;10.90;99.90;;;9.93;98.56;101428.94;4954272;28;20755;-70
2023/06/13 03:01:37;;;;;;;20.05;5.20;;;11.00;99.90;;;10.00;98.59;101432.22;4983742;28;20062;-69
2023/06/13 03:04:03;;;;;;;12.20;4.85;;;11.10;99.90;;;10.03;99.19;101435.63;4947134;28;20113;-70
2023/06/13 03:06:30;;;;;;;11.95;4.65;;;11.10;99.90;;;10.13;99.83;101438.84;4971661;28;20114;-69
2023/06/13 03:08:58;;;;;;;11.35;4.53;;;11.20;99.90;;;10.21;99.86;101441.19;4984161;28;20042;-69
2023/06/13 03:11:25;;;;;;;14.90;4.45;;;11.30;99.90;;;10.30;99.86;101438.28;4952896;28;20495;-69
2023/06/13 03:13:51;;;;;;;11.65;5.13;;;11.30;99.90;;;10.35;99.35;101441.63;4952749;28;20059;-70
2023/06/13 03:16:17;;;;;;;12.68;4.93;;;11.40;99.90;;;10.40;99.75;101439.69;4987303;28;20096;-70
2023/06/13 03:18:43;;;;;;;15.30;4.57;;;11.50;99.90;;;10.48;99.25;101436.81;4984037;28;20035;-70
2023/06/13 03:21:09;;;;;;;12.02;4.35;;;11.50;99.90;;;10.54;99.05;101435.72;4986290;28;20038;-70
2023/06/13 03:23:35;;;;;;;16.00;5.00;;;11.60;99.90;;;10.60;98.80;101443.41;4983154;28;20042;-70
2023/06/13 03:26:03;;;;;;;;;;;11.60;99.90;;;10.64;99.13;101432.69;4956265;28;20122;-70
2023/06/13 03:28:29;;;;;;;9.48;4.60;;;11.70;99.90;;;10.66;99.91;101436.13;4985927;28;19914;-69
2023/06/13 03:30:54;;;;;;;14.00;4.97;;;11.70;99.90;;;10.76;99.67;101434.03;4955032;28;20734;-70
2023/06/13 03:33:23;;;;;;;11.48;4.68;;;11.80;99.90;;;10.87;99.73;101445.06;4983578;28;20041;-69
2023/06/13 03:35:50;;;;;;;13.70;4.85;;;12.00;99.90;;;11.01;98.80;101441.03;4951275;28;20117;-69
2023/06/13 03:38:16;;;;;;;15.30;4.65;;;12.10;99.90;;;11.21;99.82;101441.19;4984313;28;20513;-70
2023/06/13 03:40:42;;;;;;;13.10;4.32;;;13.20;99.90;;;12.27;97.91;101457.22;4985292;28;20042;-69
2023/06/13 03:43:07;;;;;;;;;;;13.40;99.90;;;13.87;93.83;101468.56;4950122;28;20089;-70
2023/06/13 03:45:33;;;;;;;23.40;4.55;;;16.10;99.90;;;15.41;85.19;101458.81;4984935;28;19914;-70
2023/06/13 03:47:59;;;;;;;12.82;4.28;;;17.40;99.90;;;16.82;76.45;101468.41;4935951;28;20038;-70
2023/06/13 03:50:25;;;;;;;18.67;4.55;;;18.50;99.90;;;18.02;70.43;101474.16;4956425;28;20054;-70
2023/06/13 03:52:50;;;;;;;;;;;18.70;99.90;;;19.25;66.91;101477.28;4988829;28;20468;-70
2023/06/13 03:55:16;;;;;;;16.75;4.10;;;20.70;99.90;;;20.27;62.56;101484.09;4953019;28;19914;-70
2023/06/13 03:57:42;;;;;;;;;;;20.80;99.90;;;21.28;60.18;101490.63;4968940;28;20055;-70
2023/06/13 04:00:10;;;;;;;11.35;4.15;;;22.40;99.90;;;22.24;57.06;101503.34;4981576;28;19918;-70
2023/06/13 04:02:37;;;;;;;8.82;3.80;;;23.10;99.90;;;22.83;55.05;101509.13;4976060;28;20034;-70
2023/06/13 04:05:03;;;;;;;45.97;41.00;;;23.70;99.40;;;23.21;53.50;101513.03;4981412;28;20090;-70
2023/06/13 04:07:33;;;;;;;228.65;89.47;;;24.10;97.40;;;23.51;52.20;101515.69;4967932;28;20034;-70
2023/06/13 04:10:01;;;;;;;26.10;9.65;;;24.30;96.90;;;23.40;51.86;101523.88;4968149;28;20046;-70
2023/06/13 04:12:28;;;;;;;15.05;3.92;;;24.30;96.50;;;23.50;51.50;101530.13;4980496;28;20055;-70
2023/06/13 04:14:54;;;;;;;1999.90;286.95;;;24.80;95.90;;;24.21;50.18;101531.88;4986521;28;20122;-70
2023/06/13 04:17:19;;;;;;;;;;;24.80;96.60;;;24.20;48.56;101546.31;4954557;28;20106;-71
2023/06/13 04:19:45;;;;;;;580.72;114.50;;;24.50;94.60;;;23.60;50.25;101535.53;4950887;28;19914;-70
2023/06/13 04:22:11;;;;;;;422.90;231.98;;;24.80;94.50;;;24.11;49.47;101539.09;4982626;28;20081;-70
2023/06/13 04:24:38;;;;;;;;;;;24.90;95.10;;;23.96;49.01;101549.38;4976490;28;20027;-71
2023/06/13 04:27:04;;;;;;;11.77;3.33;;;25.20;94.10;;;25.03;47.68;101557.44;4950973;28;20172;-71
2023/06/13 04:29:31;;;;;;;11.95;3.80;;;25.30;93.30;;;24.97;47.28;101558.03;4984634;28;20062;-71
2023/06/13 04:31:57;;;;;;;15.88;4.68;;;25.60;92.90;;;25.44;46.08;101566.13;4983424;28;20587;-72
2023/06/13 04:34:24;;;;;;;;;;;25.60;93.70;;;24.94;44.96;101555.63;4962043;28;20055;-71
2023/06/13 04:36:55;;;;;;;10.85;4.78;;;25.70;92.70;;;25.80;45.54;101577.03;4984038;28;19961;-71
2023/06/13 04:39:24;;;;;;;14.68;6.85;;;26.00;91.90;;;26.21;44.13;101587.47;4953771;28;20043;-71
2023/06/13 04:41:55;;;;;;;9.65;5.60;;;26.30;91.20;;;26.21;43.68;101582.91;4965359;28;20174;-71
2023/06/13 04:44:25;;;;;;;10.05;4.38;;;26.40;91.30;;;27.22;42.79;101588.00;4966641;28;20042;-71
2023/06/13 04:47:01;;;;;;;8.48;3.60;;;26.90;90.80;;;27.79;41.25;101603.66;4983283;28;20035;-71
2023/06/13 04:49:27;;;;;;;8.88;4.05;;;27.30;90.00;;;28.36;40.20;101614.69;4983300;28;21058;-71
2023/06/13 04:51:54;;;;;;;8.32;4.75;;;27.10;90.20;;;27.90;40.81;101602.53;4968241;28;20043;-71
2023/06/13 04:54:23;;;;;;;9.98;5.15;;;27.50;90.50;;;28.86;39.56;101617.47;4983729;28;20101;-71
2023/06/13 04:56:50;;;;;;;7.00;3.75;;;27.20;87.50;;;27.75;40.37;101602.28;4952474;28;20042;-71
2023/06/13 04:59:16;;;;;;;8.70;4.82;;;27.40;88.40;;;27.82;39.94;101606.91;4974602;28;20034;-71
2023/06/13 05:01:43;;;;;;;5.68;3.22;;;27.60;88.50;;;28.88;38.96;101634.38;4937138;28;20042;-72
2023/06/13 05:04:10;;;;;;;13.95;3.38;;;27.90;87.10;;;29.20;38.25;101636.25;4982206;28;20054;-71
2023/06/13 05:06:37;;;;;;;10.25;3.38;;;28.40;86.50;;;30.27;36.54;101642.13;4967818;28;20607;-71
2023/06/13 05:09:03;;;;;;;9.93;3.15;;;28.20;84.30;;;29.47;37.16;101642.31;4964867;28;20047;-71
2023/06/13 05:11:30;;;;;;;12.20;3.22;;;28.60;84.90;;;30.67;35.75;101656.53;4972066;28;20031;-71
2023/06/13 05:13:56;;;;;;;12.82;4.20;;;29.10;84.40;;;31.11;34.97;101661.25;4955346;28;20031;-71
2023/06/13 05:16:22;;;;;;;8.77;6.50;;;29.50;83.10;;;31.53;33.98;101670.72;4953619;28;20033;-71
2023/06/13 05:18:49;;;;;;;9.30;3.88;;;29.00;82.00;;;30.47;35.44;101650.69;4974839;28;20089;-71
2023/06/13 05:21:16;;;;;;;72.88;25.92;;;29.40;81.60;;;31.19;34.20;101668.47;4952375;28;20399;-71
2023/06/13 05:23:43;;;;;;;56.53;50.75;;;29.80;81.40;;;31.89;33.26;101678.97;4952404;28;20028;-71
2023/06/13 05:26:10;;;;;;;199.70;130.25;;;29.20;81.20;;;30.64;34.60;101665.00;4985992;28;20088;-71
2023/06/13 05:28:36;;;;;;;143.88;130.48;;;29.50;81.20;;;31.83;33.53;101689.78;4983201;28;20574;-71
2023/06/13 05:31:02;;;;;;;142.80;129.70;;;29.80;80.20;;;32.21;32.91;101692.41;4958031;28;20043;-71
2023/06/13 05:33:28;;;;;;;135.27;123.20;;;29.60;78.40;;;31.29;33.44;101682.66;4983872;28;20081;-71
2023/06/13 05:35:54;;;;;;;145.20;131.75;;;29.40;79.80;;;30.98;33.74;101689.06;4969546;28;20069;-72
2023/06/13 05:38:20;;;;;;;129.43;117.75;;;29.50;79.10;;;31.17;33.39;101685.00;4955101;28;20091;-73
2023/06/13 05:40:45;;;;;;;116.68;105.47;;;29.60;78.90;;;31.66;32.58;101698.16;4952941;28;20093;-72
2023/06/13 05:43:12;;;;;;;63.30;57.78;;;28.80;79.10;;;29.03;35.50;101654.38;4964844;28;20027;-72
2023/06/13 05:45:38;;;;;;;136.32;123.97;;;29.00;81.20;;;30.88;33.68;101685.75;4991783;28;20035;-71
2023/06/13 05:48:05;;;;;;;76.57;49.97;;;28.20;79.70;;;28.66;35.15;101658.44;4974739;28;20555;-72
2023/06/13 05:50:31;;;;;;;75.65;68.38;;;28.40;80.30;;;29.44;35.52;101671.47;4961700;28;20033;-72
2023/06/13 05:52:56;;;;;;;66.22;60.20;;;28.60;81.00;;;30.66;34.21;101687.44;4959343;28;20041;-72
2023/06/13 05:55:22;;;;;;;76.82;69.55;;;28.50;79.10;;;29.44;34.52;101682.31;4957427;28;20126;-72
2023/06/13 05:57:49;;;;;;;74.07;67.28;;;29.10;79.50;;;30.83;33.55;101689.00;4950224;28;20045;-72
2023/06/13 06:00:15;;;;;;;83.22;76.32;;;29.10;77.50;;;30.19;33.93;101680.22;4966193;28;20039;-72
2023/06/13 06:02:44;;;;;;;91.45;83.15;;;29.30;77.20;;;30.51;33.45;101681.09;4987497;28;20050;-72
2023/06/13 06:05:13;;;;;;;108.35;98.72;;;29.80;77.50;;;31.09;32.80;101693.25;4957120;28;20467;-71
2023/06/13 06:07:42;;;;;;;97.45;88.68;;;30.70;78.00;;;32.63;30.85;101702.53;4985685;28;20039;-72
2023/06/13 06:10:09;;;;;;;109.25;98.50;;;30.60;74.40;;;31.36;32.01;101680.91;4971603;28;20034;-72
2023/06/13 06:12:35;;;;;;;94.80;85.28;;;30.70;74.70;;;31.65;32.35;101696.44;4977120;28;20026;-72
2023/06/13 06:15:05;;;;;;;127.30;114.63;;;31.20;74.30;;;32.78;30.51;101710.66;4956660;28;20381;-72
2023/06/13 06:17:31;;;;;;;114.95;103.95;;;31.60;72.80;;;33.36;29.88;101717.91;4969681;28;20033;-72
2023/06/13 06:19:57;;;;;;;98.75;89.43;;;31.90;72.50;;;33.26;29.75;101708.19;4945432;28;20039;-72
2023/06/13 06:22:23;;;;;;;92.25;83.13;;;32.20;70.60;;;33.26;29.62;101708.19;4985493;28;20039;-71
2023/06/13 06:24:49;;;;;;;131.38;117.97;;;33.00;71.20;;;34.20;28.84;101725.16;4977992;28;20057;-73
2023/06/13 06:27:17;;;;;;;133.35;120.45;;;32.90;68.40;;;33.56;29.36;101712.56;4974199;28;20031;-72
2023/06/13 06:29:43;;;;;;;143.85;129.10;;;32.60;67.10;;;32.67;29.83;101705.72;4940141;28;20487;-73
2023/06/13 06:32:10;;;;;;;901.03;385.50;;;32.10;68.40;;;31.87;30.72;101702.81;4955258;28;20053;-73
2023/06/13 06:34:36;;;;;;;356.45;275.88;;;32.50;69.00;;;32.93;29.88;101710.56;4985519;28;20575;-73
2023/06/13 06:37:05;;;;;;;128.15;115.38;;;32.30;67.70;;;31.89;30.14;101699.91;4973212;28;20026;-71
2023/06/13 06:39:32;;;;;;;42.05;37.83;;;32.10;68.00;;;32.41;30.15;101704.34;4956295;28;20039;-72
2023/06/13 06:41:57;;;;;;;53.28;48.40;;;32.20;68.50;;;32.41;30.20;101704.34;4976130;28;20458;-72
2023/06/13 06:44:25;;;;;;;46.25;42.47;;;32.40;70.60;;;33.01;30.59;101709.63;4956788;28;20031;-72
2023/06/13 06:46:51;;;;;;;146.63;132.75;;;32.10;70.00;;;32.08;31.02;101710.25;4984731;28;20047;-73
2023/06/13 06:49:18;;;;;;;75.13;67.75;;;32.00;70.80;;;31.42;31.86;101691.06;4978071;28;20042;-72
2023/06/13 06:51:44;;;;;;;87.00;78.43;;;31.50;71.10;;;30.86;32.84;101674.22;4948565;28;20523;-73
2023/06/13 06:54:10;;;;;;;62.60;57.00;;;31.50;72.90;;;31.67;31.89;101686.22;4984102;28;20049;-72
2023/06/13 06:56:36;;;;;;;57.05;52.22;;;31.50;71.90;;;31.44;32.44;101686.28;4954250;28;20419;-73
2023/06/13 06:59:02;;;;;;;51.85;46.67;;;31.60;72.10;;;31.85;32.00;101693.16;4985884;28;20054;-72
2023/06/13 07:01:30;;;;;;;49.30;45.38;;;31.40;71.80;;;31.15;32.31;101678.91;4975758;28;20121;-72
2023/06/13 07:03:56;;;;;;;35.05;31.90;;;31.30;72.90;;;31.32;32.87;101684.16;4953889;28;20586;-73
2023/06/13 07:06:21;;;;;;;50.55;45.22;;;31.50;71.60;;;31.74;32.05;101686.31;4986923;28;20039;-73
2023/06/13 07:08:48;;;;;;;35.38;32.10;;;31.30;71.10;;;31.00;32.95;101673.44;4986001;28;20038;-72
2023/06/13 07:11:14;;;;;;;25.20;23.13;;;31.30;71.40;;;31.28;32.61;101670.94;4953346;28;20042;-71
2023/06/13 07:13:39;;;;;;;49.05;44.65;;;31.60;70.80;;;31.99;31.35;101677.88;4953385;28;20044;-73
2023/06/13 07:16:05;;;;;;;36.38;30.83;;;32.00;70.60;;;32.39;31.21;101684.63;4972715;28;20054;-72
2023/06/13 07:18:31;;;;;;;29.05;25.77;;;32.00;70.20;;;31.81;31.59;101678.22;4949893;28;20197;-72
2023/06/13 07:20:57;;;;;;;27.73;24.75;;;31.80;69.20;;;31.68;31.15;101687.91;4945862;28;20035;-72
2023/06/13 07:23:24;;;;;;;16.08;14.05;;;31.60;66.50;;;30.81;31.07;101663.03;4973816;28;20109;-72
2023/06/13 07:25:50;;;;;;;35.67;32.10;;;31.00;67.00;;;30.00;31.67;101659.75;4958415;28;20078;-72
2023/06/13 07:28:15;;;;;;;51.90;47.30;;;30.40;68.90;;;29.56;32.91;101647.50;4993560;28;20078;-73
2023/06/13 07:30:41;;;;;;;30.40;27.48;;;30.40;68.60;;;30.07;31.57;101649.91;4947918;28;20578;-72
2023/06/13 07:33:07;;;;;;;34.65;31.52;;;29.80;68.10;;;29.20;32.23;101642.53;4974910;28;20123;-72
2023/06/13 07:35:33;;;;;;;29.83;26.77;;;29.90;69.20;;;29.60;32.64;101643.44;4957073;28;20046;-72
2023/06/13 07:37:59;;;;;;;94.95;86.43;;;30.30;67.10;;;29.83;30.75;101653.59;4985918;28;20046;-73
2023/06/13 07:40:25;;;;;;;93.68;84.38;;;30.30;66.00;;;30.00;30.13;101652.47;4954882;28;20110;-72
2023/06/13 07:42:51;;;;;;;184.40;168.57;;;30.10;65.70;;;29.73;30.45;101659.19;4965506;28;20045;-73
2023/06/13 07:45:17;;;;;;;764.08;688.80;;;29.10;65.30;;;28.26;31.28;101632.94;4982166;28;20039;-73
2023/06/13 07:47:44;;;;;;;20.00;11.85;;;28.70;66.70;;;28.27;32.08;101636.50;4983593;28;20388;-73
2023/06/13 07:50:10;;;;;;;702.72;627.92;;;28.60;67.60;;;28.35;31.45;101637.34;4989415;28;20031;-74
2023/06/13 07:52:36;;;;;;;23.08;6.45;;;28.50;67.80;;;28.64;31.95;101641.50;4955941;28;20672;-73
2023/06/13 07:55:03;;;;;;;637.47;577.72;;;28.40;67.10;;;28.44;31.45;101635.50;4953194;28;20062;-73
2023/06/13 07:57:29;;;;;;;639.33;577.38;;;28.60;66.00;;;28.60;30.39;101659.94;5000914;28;20031;-72
2023/06/13 07:59:55;;;;;;;362.70;323.35;;;28.50;64.70;;;27.93;30.40;101654.50;4943141;28;20508;-72
2023/06/13 08:02:23;;;;;;;615.42;532.92;;;28.50;64.50;;;27.98;30.58;101649.44;4975065;28;20031;-73
2023/06/13 08:04:49;;;;;;;444.92;403.17;;;28.20;64.40;;;27.90;30.67;101645.84;4954402;28;20030;-72
2023/06/13 08:07:15;;;;;;;444.35;405.00;;;28.40;66.70;;;28.65;30.38;101655.91;4973938;28;20118;-72
2023/06/13 08:09:41;;;;;;;830.78;423.50;;;28.40;65.00;;;28.24;30.39;101645.78;4959651;28;20043;-73
2023/06/13 08:12:09;;;;;;;514.33;464.02;;;28.20;65.30;;;28.12;30.66;101644.41;4952407;28;20113;-72
2023/06/13 08:14:34;;;;;;;519.53;467.05;;;28.20;64.60;;;28.02;30.40;101653.50;4978626;28;20492;-73
2023/06/13 08:17:00;;;;;;;1555.60;254.30;;;27.80;65.30;;;26.42;31.29;101628.50;4982428;28;20052;-72
2023/06/13 08:19:26;;;;;;;374.63;341.83;;;26.70;65.60;;;25.82;32.41;101604.72;4952791;28;20057;-73
2023/06/13 08:21:52;;;;;;;352.75;321.92;;;27.00;67.50;;;26.95;32.08;101624.94;4984149;28;20134;-72
2023/06/13 08:24:18;;;;;;;393.23;354.73;;;26.90;65.90;;;26.64;31.22;101619.13;4953983;28;20802;-72
2023/06/13 08:26:44;;;;;;;325.60;297.85;;;27.10;65.00;;;26.93;30.82;101632.38;4954780;28;20640;-72
2023/06/13 08:29:13;;;;;;;877.47;121.90;;;26.50;64.80;;;25.08;32.54;101611.75;4985680;28;20035;-73
2023/06/13 08:31:40;;;;;;;386.70;351.33;;;26.10;67.80;;;25.28;33.56;101607.19;4973553;28;20031;-73
2023/06/13 08:34:06;;;;;;;377.58;341.08;;;25.50;67.70;;;24.22;34.58;101579.31;4984826;28;20090;-73
2023/06/13 08:36:35;;;;;;;261.38;237.93;;;25.40;69.90;;;24.62;34.79;101577.50;4957555;28;20038;-73
2023/06/13 08:39:03;;;;;;;391.33;353.95;;;25.00;68.10;;;24.03;34.48;101569.34;4985561;28;20162;-73
2023/06/13 08:41:30;;;;;;;304.02;275.00;;;24.50;68.80;;;23.29;35.03;101564.28;4950609;28;20085;-72
2023/06/13 08:43:58;;;;;;;328.33;298.38;;;24.50;69.70;;;23.61;35.16;101569.50;4966858;28;20034;-72
2023/06/13 08:46:24;;;;;;;505.63;272.05;;;24.40;69.00;;;23.64;34.96;101557.63;4936928;28;20023;-72
2023/06/13 08:48:50;;;;;;;174.57;158.23;;;24.20;69.80;;;23.29;35.59;101551.69;4946579;28;20176;-73
2023/06/13 08:51:21;;;;;;;243.75;218.25;;;24.10;71.50;;;23.21;35.79;101553.34;4985188;28;20074;-72
2023/06/13 08:53:51;;;;;;;324.10;291.98;;;24.00;71.30;;;22.93;36.29;101542.28;4965358;28;21091;-73
2023/06/13 08:56:21;;;;;;;194.38;176.95;;;24.00;72.40;;;23.24;36.33;101545.00;4939579;28;20046;-74
2023/06/13 08:58:56;;;;;;;222.27;200.35;;;24.00;72.90;;;23.17;36.86;101551.91;4948467;28;20556;-72
2023/06/13 09:01:25;;;;;;;270.00;243.73;;;23.70;72.80;;;22.77;36.94;101536.53;4970760;28;20089;-73
2023/06/13 09:03:52;;;;;;;356.08;321.05;;;23.60;73.50;;;22.65;37.21;101538.41;4978653;28;20081;-73
2023/06/13 09:06:20;;;;;;;169.57;154.23;;;23.60;75.00;;;22.99;37.50;101540.91;4951880;28;20043;-73
2023/06/13 09:08:47;;;;;;;181.93;166.38;;;23.50;74.60;;;22.85;37.90;101525.97;4967082;28;20077;-73
2023/06/13 09:11:17;;;;;;;395.75;200.00;;;23.70;73.90;;;22.91;37.32;101541.56;4986765;28;20496;-73
2023/06/13 09:13:44;;;;;;;278.65;252.48;;;23.80;73.70;;;23.15;37.31;101538.59;4959500;28;20039;-73
2023/06/13 09:16:13;;;;;;;270.15;244.02;;;23.80;73.40;;;23.21;37.10;101542.59;4985810;28;20050;-73
2023/06/13 09:18:42;;;;;;;266.25;226.02;;;24.10;75.00;;;23.52;36.61;101536.22;4983890;28;20050;-74
2023/06/13 09:21:10;;;;;;;461.52;298.63;;;24.20;73.00;;;23.61;36.74;101545.31;4956718;28;20046;-73
2023/06/13 09:23:37;;;;;;;466.85;226.88;;;24.30;69.40;;;23.50;34.65;101551.66;4925998;28;20038;-73
2023/06/13 09:26:10;;;;;;;231.02;208.13;;;24.10;69.40;;;23.20;35.12;101554.34;4959979;28;20186;-74
2023/06/13 09:28:41;;;;;;;223.48;201.88;;;24.00;69.30;;;23.25;35.00;101552.09;4953302;28;20434;-74
2023/06/13 09:31:11;;;;;;;211.65;191.65;;;24.00;70.80;;;23.11;35.61;101540.72;4954737;28;20556;-73
2023/06/13 09:33:38;;;;;;;273.42;245.57;;;23.90;71.20;;;23.05;35.86;101552.00;4967797;28;20506;-75
2023/06/13 09:36:05;;;;;;;249.02;223.57;;;23.50;71.60;;;22.53;36.63;101551.06;4990494;28;20023;-74
2023/06/13 09:38:35;;;;;;;422.20;246.05;;;23.40;72.90;;;22.30;37.32;101535.03;4972005;28;20094;-73
2023/06/13 09:41:07;;;;;;;119.30;96.65;;;23.40;71.50;;;22.64;35.88;101536.72;4955733;28;20473;-73
2023/06/13 09:43:41;;;;;;;138.25;124.88;;;23.50;72.20;;;22.66;35.79;101548.19;4980788;28;20066;-74
2023/06/13 09:46:11;;;;;;;127.43;116.25;;;23.30;72.40;;;22.43;36.85;101524.13;4968670;28;20042;-73
2023/06/13 09:48:38;;;;;;;135.55;123.30;;;23.10;72.20;;;22.30;36.98;101535.03;4958648;28;20051;-72
2023/06/13 09:51:13;;;;;;;130.43;118.38;;;23.30;73.50;;;22.62;36.95;101523.44;4964563;28;20527;-71
2023/06/13 09:53:50;;;;;;;225.57;203.77;;;23.40;73.60;;;22.74;37.13;101521.50;4953542;28;20499;-71
2023/06/13 09:56:16;;;;;;;122.50;111.20;;;23.50;71.50;;;23.06;35.82;101532.19;4977570;28;20130;-72
2023/06/13 09:58:44;;;;;;;151.15;136.50;;;23.70;72.90;;;23.00;36.18;101534.53;4974109;28;20035;-73
2023/06/13 10:01:17;;;;;;;726.03;180.93;;;23.70;71.70;;;22.67;36.13;101528.41;4959196;28;20171;-73
2023/06/13 10:03:44;;;;;;;858.67;112.00;;;23.50;71.40;;;22.59;36.26;101534.44;4988297;28;20150;-74
2023/06/13 10:06:13;;;;;;;91.40;83.28;;;23.70;73.30;;;23.12;36.71;101530.81;4990598;28;20188;-74